Time,TemperatureF,DewpointF,PressureIn,WindDirection,WindDirectionDegrees,WindSpeedMPH,WindSpeedGustMPH,Humidity,HourlyPrecipIn,Conditions,Clouds,dailyrainin,SoftwareType,DateUTC
2013-05-09 00:00:00,56.7,55.6,29.87,North,8,0.0,0.0,96,0.06,,---,0.17,VWS V14.01,2013-05-09 04:00:00,
2013-05-09 00:01:00,56.7,55.6,29.87,North,8,0.0,0.0,96,0.06,,---,0.00,VWS V14.01,2013-05-09 04:01:00,
2013-05-09 00:06:00,56.7,55.6,29.87,North,351,0.0,0.0,96,0.07,,---,0.01,VWS V14.01,2013-05-09 04:06:00,
2013-05-09 00:11:00,56.6,55.2,29.87,North,352,0.0,0.0,95,0.08,,---,0.02,VWS V14.01,2013-05-09 04:11:00,
2013-05-09 00:16:00,56.5,55.1,29.86,North,352,0.0,0.0,95,0.08,,---,0.02,VWS V14.01,2013-05-09 04:16:00,
2013-05-09 00:22:00,56.6,55.5,29.86,North,351,0.0,0.0,96,0.09,,---,0.03,VWS V14.01,2013-05-09 04:22:00,
2013-05-09 00:27:00,56.6,55.5,29.86,North,352,0.0,0.0,96,0.09,,---,0.03,VWS V14.01,2013-05-09 04:27:00,
2013-05-09 00:30:00,56.6,55.5,29.86,North,352,0.0,0.0,96,0.09,,---,0.03,VWS V14.01,2013-05-09 04:30:00,
2013-05-09 00:32:00,56.5,55.4,29.86,North,352,0.0,0.0,96,0.08,,---,0.03,VWS V14.01,2013-05-09 04:32:00,
2013-05-09 00:37:00,56.4,55.0,29.86,North,351,0.0,0.0,95,0.08,,---,0.03,VWS V14.01,2013-05-09 04:37:00,
2013-05-09 00:42:00,56.3,54.9,29.86,North,351,0.0,0.0,95,0.08,,---,0.03,VWS V14.01,2013-05-09 04:42:00,
2013-05-09 00:47:00,56.4,55.3,29.87,North,352,0.0,0.0,96,0.08,,---,0.03,VWS V14.01,2013-05-09 04:47:00,
2013-05-09 00:52:00,56.2,54.8,29.87,ESE,102,0.0,0.0,95,0.08,,---,0.03,VWS V14.01,2013-05-09 04:52:00,
2013-05-09 00:57:00,56.2,55.1,29.87,ESE,109,0.0,0.0,96,0.08,,---,0.03,VWS V14.01,2013-05-09 04:57:00,
2013-05-09 01:00:00,56.1,55.0,29.87,ESE,109,0.0,0.0,96,0.08,,---,0.03,VWS V14.01,2013-05-09 05:00:00,
2013-05-09 01:02:00,56.1,55.0,29.87,ESE,109,0.0,0.0,96,0.03,,---,0.03,VWS V14.01,2013-05-09 05:02:00,
2013-05-09 01:07:00,56.0,54.9,29.87,SSE,148,0.0,0.0,96,0.03,,---,0.03,VWS V14.01,2013-05-09 05:07:00,
2013-05-09 01:12:00,55.9,54.8,29.87,SSE,148,0.0,0.0,96,0.03,,---,0.03,VWS V14.01,2013-05-09 05:12:00,
2013-05-09 01:17:00,55.8,54.7,29.86,SSE,148,0.0,0.0,96,0.03,,---,0.03,VWS V14.01,2013-05-09 05:17:00,
2013-05-09 01:22:00,55.6,54.5,29.86,SSE,148,0.0,0.0,96,0.03,,---,0.03,VWS V14.01,2013-05-09 05:22:00,
2013-05-09 01:27:00,55.5,54.4,29.86,SSE,148,0.0,0.0,96,0.03,,---,0.03,VWS V14.01,2013-05-09 05:27:00,
2013-05-09 01:30:00,55.4,54.3,29.86,SSE,148,0.0,0.0,96,0.03,,---,0.03,VWS V14.01,2013-05-09 05:30:00,
2013-05-09 01:32:00,55.3,54.2,29.86,SSE,148,0.0,0.0,96,0.00,,---,0.03,VWS V14.01,2013-05-09 05:32:00,
2013-05-09 01:37:00,55.1,54.0,29.86,SSE,148,0.0,0.0,96,0.00,,---,0.03,VWS V14.01,2013-05-09 05:37:00,
2013-05-09 01:42:00,55.0,53.9,29.85,ESE,108,0.0,0.0,96,0.00,,---,0.03,VWS V14.01,2013-05-09 05:42:00,
2013-05-09 01:47:00,54.7,53.6,29.85,SE,134,0.0,0.0,96,0.00,,---,0.03,VWS V14.01,2013-05-09 05:47:00,
2013-05-09 01:52:00,54.5,53.4,29.85,SE,140,0.0,0.0,96,0.00,,---,0.03,VWS V14.01,2013-05-09 05:52:00,
2013-05-09 01:58:00,54.3,53.2,29.85,SE,146,0.0,0.0,96,0.00,,---,0.03,VWS V14.01,2013-05-09 05:58:00,
2013-05-09 02:00:00,54.3,53.2,29.85,SSE,163,0.0,0.0,96,0.00,,---,0.03,VWS V14.01,2013-05-09 06:00:00,
2013-05-09 02:03:00,54.2,53.1,29.85,South,173,0.0,0.0,96,0.00,,---,0.03,VWS V14.01,2013-05-09 06:03:00,
2013-05-09 02:08:00,54.2,53.1,29.85,South,174,0.0,0.0,96,0.00,,---,0.03,VWS V14.01,2013-05-09 06:08:00,
2013-05-09 02:13:00,54.4,53.3,29.84,SSW,196,0.0,0.0,96,0.00,,---,0.03,VWS V14.01,2013-05-09 06:13:00,
2013-05-09 02:18:00,54.5,53.4,29.84,SSW,203,0.0,0.0,96,0.01,,---,0.04,VWS V14.01,2013-05-09 06:18:00,
2013-05-09 02:23:00,54.6,53.2,29.84,SSW,196,0.0,0.0,95,0.01,,---,0.04,VWS V14.01,2013-05-09 06:23:00,
2013-05-09 02:28:00,54.6,53.2,29.84,SSW,192,0.0,0.0,95,0.01,,---,0.04,VWS V14.01,2013-05-09 06:28:00,
2013-05-09 02:30:00,54.5,53.1,29.84,SSW,192,0.0,0.0,95,0.01,,---,0.04,VWS V14.01,2013-05-09 06:30:00,
2013-05-09 02:33:00,54.4,53.0,29.84,South,186,0.0,0.0,95,0.01,,---,0.04,VWS V14.01,2013-05-09 06:33:00,
2013-05-09 02:38:00,54.4,53.0,29.84,South,188,0.0,0.0,95,0.01,,---,0.04,VWS V14.01,2013-05-09 06:38:00,
2013-05-09 02:43:00,54.4,53.0,29.84,South,175,0.0,0.0,95,0.01,,---,0.04,VWS V14.01,2013-05-09 06:43:00,
2013-05-09 02:48:00,54.6,52.9,29.84,South,176,0.0,0.0,94,0.01,,---,0.04,VWS V14.01,2013-05-09 06:48:00,
2013-05-09 02:53:00,54.9,52.9,29.83,South,171,0.0,0.0,93,0.01,,---,0.04,VWS V14.01,2013-05-09 06:53:00,
2013-05-09 02:58:00,54.9,52.6,29.83,South,183,0.0,0.0,92,0.01,,---,0.04,VWS V14.01,2013-05-09 06:58:00,
2013-05-09 03:00:00,54.9,52.6,29.84,South,185,0.0,0.0,92,0.01,,---,0.04,VWS V14.01,2013-05-09 07:00:00,
2013-05-09 03:03:00,55.0,52.7,29.83,South,182,0.0,0.0,92,0.01,,---,0.04,VWS V14.01,2013-05-09 07:03:00,
2013-05-09 03:08:00,55.0,52.4,29.83,South,182,0.0,0.0,91,0.01,,---,0.04,VWS V14.01,2013-05-09 07:08:00,
2013-05-09 03:13:00,55.0,52.1,29.83,South,183,0.0,0.0,90,0.01,,---,0.04,VWS V14.01,2013-05-09 07:13:00,
2013-05-09 03:19:00,54.9,52.0,29.83,South,190,0.0,0.0,90,0.01,,---,0.04,VWS V14.01,2013-05-09 07:19:00,
2013-05-09 03:24:00,54.9,52.0,29.83,South,186,0.0,0.0,90,0.01,,---,0.04,VWS V14.01,2013-05-09 07:24:00,
2013-05-09 03:29:00,54.9,52.0,29.83,South,187,0.0,0.0,90,0.01,,---,0.04,VWS V14.01,2013-05-09 07:29:00,
2013-05-09 03:30:00,54.9,52.0,29.83,South,187,0.0,0.0,90,0.01,,---,0.04,VWS V14.01,2013-05-09 07:30:00,
2013-05-09 03:34:00,54.8,51.6,29.83,South,187,0.0,0.0,89,0.00,,---,0.04,VWS V14.01,2013-05-09 07:34:00,
2013-05-09 03:39:00,54.6,51.7,29.83,South,187,0.0,0.0,90,0.00,,---,0.04,VWS V14.01,2013-05-09 07:39:00,
2013-05-09 03:44:00,54.4,51.5,29.83,South,187,0.0,0.0,90,0.00,,---,0.04,VWS V14.01,2013-05-09 07:44:00,
2013-05-09 03:49:00,54.3,51.4,29.83,South,187,0.0,0.0,90,0.00,,---,0.04,VWS V14.01,2013-05-09 07:49:00,
2013-05-09 03:54:00,54.3,51.4,29.83,South,187,0.0,0.0,90,0.00,,---,0.04,VWS V14.01,2013-05-09 07:54:00,
2013-05-09 03:59:00,54.2,51.3,29.83,South,187,0.0,0.0,90,0.00,,---,0.04,VWS V14.01,2013-05-09 07:59:00,
2013-05-09 04:00:00,54.2,51.3,29.83,South,187,0.0,0.0,90,0.00,,---,0.04,VWS V14.01,2013-05-09 08:00:00,
2013-05-09 04:04:00,54.0,51.4,29.83,South,187,0.0,0.0,91,0.00,,---,0.04,VWS V14.01,2013-05-09 08:04:00,
2013-05-09 04:09:00,53.8,51.2,29.83,South,187,0.0,0.0,91,0.00,,---,0.04,VWS V14.01,2013-05-09 08:09:00,
2013-05-09 04:14:00,53.7,51.1,29.82,South,187,0.0,0.0,91,0.00,,---,0.04,VWS V14.01,2013-05-09 08:14:00,
2013-05-09 04:19:00,53.6,51.3,29.83,South,187,0.0,0.0,92,0.00,,---,0.04,VWS V14.01,2013-05-09 08:19:00,
2013-05-09 04:24:00,53.5,51.2,29.82,South,187,0.0,0.0,92,0.00,,---,0.04,VWS V14.01,2013-05-09 08:24:00,
2013-05-09 04:29:00,53.3,51.0,29.83,South,187,0.0,0.0,92,0.00,,---,0.04,VWS V14.01,2013-05-09 08:29:00,
2013-05-09 04:30:00,53.3,51.0,29.83,South,187,0.0,0.0,92,0.00,,---,0.04,VWS V14.01,2013-05-09 08:30:00,
2013-05-09 04:34:00,53.3,51.0,29.82,South,187,0.0,0.0,92,0.00,,---,0.04,VWS V14.01,2013-05-09 08:34:00,
2013-05-09 04:39:00,53.3,51.3,29.82,South,187,0.0,0.0,93,0.00,,---,0.04,VWS V14.01,2013-05-09 08:39:00,
2013-05-09 04:44:00,53.2,51.2,29.83,South,187,0.0,0.0,93,0.00,,---,0.04,VWS V14.01,2013-05-09 08:44:00,
2013-05-09 04:49:00,53.2,51.2,29.83,South,187,0.0,0.0,93,0.00,,---,0.04,VWS V14.01,2013-05-09 08:49:00,
2013-05-09 04:54:00,53.0,51.0,29.83,South,187,0.0,0.0,93,0.00,,---,0.04,VWS V14.01,2013-05-09 08:54:00,
2013-05-09 04:59:00,52.8,50.8,29.83,South,187,0.0,0.0,93,0.00,,---,0.04,VWS V14.01,2013-05-09 08:59:00,
2013-05-09 05:00:00,52.8,50.8,29.83,South,187,0.0,0.0,93,0.00,,---,0.04,VWS V14.01,2013-05-09 09:00:00,
2013-05-09 05:04:00,52.7,50.7,29.83,South,187,0.0,0.0,93,0.00,,---,0.04,VWS V14.01,2013-05-09 09:04:00,
2013-05-09 05:09:00,52.6,50.6,29.83,South,187,0.0,0.0,93,0.00,,---,0.04,VWS V14.01,2013-05-09 09:09:00,
2013-05-09 05:14:00,52.6,50.9,29.82,South,187,0.0,0.0,94,0.00,,---,0.04,VWS V14.01,2013-05-09 09:14:00,
2013-05-09 05:19:00,52.6,50.9,29.83,South,187,0.0,0.0,94,0.00,,---,0.04,VWS V14.01,2013-05-09 09:19:00,
2013-05-09 05:24:00,52.4,50.7,29.83,South,187,0.0,0.0,94,0.00,,---,0.04,VWS V14.01,2013-05-09 09:24:00,
2013-05-09 05:29:00,52.3,50.6,29.83,South,187,0.0,0.0,94,0.00,,---,0.04,VWS V14.01,2013-05-09 09:29:00,
2013-05-09 05:30:00,52.3,50.6,29.83,South,187,0.0,0.0,94,0.00,,---,0.04,VWS V14.01,2013-05-09 09:30:00,
2013-05-09 05:34:00,52.3,50.6,29.83,South,187,0.0,0.0,94,0.00,,---,0.04,VWS V14.01,2013-05-09 09:34:00,
2013-05-09 05:39:00,52.5,51.1,29.83,SSW,193,0.0,0.0,95,0.00,,---,0.04,VWS V14.01,2013-05-09 09:39:00,
2013-05-09 05:44:00,52.8,51.4,29.83,SW,219,0.0,0.0,95,0.00,,---,0.04,VWS V14.01,2013-05-09 09:44:00,
2013-05-09 05:50:00,53.0,51.6,29.83,SW,221,0.0,0.0,95,0.00,,---,0.04,VWS V14.01,2013-05-09 09:50:00,
2013-05-09 05:55:00,53.2,51.8,29.83,SW,221,0.0,0.0,95,0.00,,---,0.04,VWS V14.01,2013-05-09 09:55:00,
2013-05-09 06:00:00,53.3,51.9,29.83,SW,221,0.0,0.0,95,0.00,,---,0.04,VWS V14.01,2013-05-09 10:00:00,
2013-05-09 06:05:00,53.4,51.7,29.83,SW,221,0.0,0.0,94,0.00,,---,0.04,VWS V14.01,2013-05-09 10:05:00,
2013-05-09 06:10:00,53.4,51.7,29.83,SW,221,0.0,0.0,94,0.00,,---,0.04,VWS V14.01,2013-05-09 10:10:00,
2013-05-09 06:15:00,53.3,51.6,29.83,SW,221,0.0,0.0,94,0.00,,---,0.04,VWS V14.01,2013-05-09 10:15:00,
2013-05-09 06:20:00,53.1,51.4,29.83,SW,221,0.0,0.0,94,0.00,,---,0.04,VWS V14.01,2013-05-09 10:20:00,
2013-05-09 06:25:00,52.8,51.1,29.83,SW,221,0.0,0.0,94,0.00,,---,0.04,VWS V14.01,2013-05-09 10:25:00,
2013-05-09 06:30:00,52.5,50.8,29.84,SW,221,0.0,0.0,94,0.00,,---,0.04,VWS V14.01,2013-05-09 10:30:00,
2013-05-09 06:35:00,52.5,51.1,29.84,SW,221,0.0,0.0,95,0.00,,---,0.04,VWS V14.01,2013-05-09 10:35:00,
2013-05-09 06:40:00,52.6,51.2,29.83,SW,221,0.0,0.0,95,0.00,,---,0.04,VWS V14.01,2013-05-09 10:40:00,
2013-05-09 06:45:00,52.7,51.3,29.84,SW,221,0.0,0.0,95,0.00,,---,0.04,VWS V14.01,2013-05-09 10:45:00,
2013-05-09 06:50:00,52.8,51.7,29.84,SW,221,0.0,0.0,96,0.00,,---,0.04,VWS V14.01,2013-05-09 10:50:00,
2013-05-09 06:55:00,53.0,51.9,29.84,SW,221,0.0,0.0,96,0.00,,---,0.04,VWS V14.01,2013-05-09 10:55:00,
2013-05-09 07:00:00,53.2,51.8,29.84,SW,221,0.0,0.0,95,0.00,,---,0.04,VWS V14.01,2013-05-09 11:00:00,
2013-05-09 07:05:00,53.3,51.9,29.84,SW,221,0.0,0.0,95,0.00,,---,0.04,VWS V14.01,2013-05-09 11:05:00,
2013-05-09 07:10:00,53.4,52.3,29.84,SW,221,0.0,0.0,96,0.00,,---,0.04,VWS V14.01,2013-05-09 11:10:00,
2013-05-09 07:15:00,53.6,52.5,29.85,SW,221,0.0,0.0,96,0.00,,---,0.04,VWS V14.01,2013-05-09 11:15:00,
2013-05-09 07:20:00,53.7,52.6,29.85,SW,221,0.0,0.0,96,0.00,,---,0.04,VWS V14.01,2013-05-09 11:20:00,
2013-05-09 07:25:00,54.0,52.9,29.85,SW,221,0.0,0.0,96,0.00,,---,0.04,VWS V14.01,2013-05-09 11:25:00,
2013-05-09 07:30:00,54.1,53.0,29.85,SW,221,0.0,0.0,96,0.00,,---,0.04,VWS V14.01,2013-05-09 11:30:00,
2013-05-09 07:35:00,54.5,53.4,29.85,SW,221,0.0,0.0,96,0.00,,---,0.04,VWS V14.01,2013-05-09 11:35:00,
2013-05-09 07:40:00,54.7,53.6,29.85,SW,221,0.0,0.0,96,0.00,,---,0.04,VWS V14.01,2013-05-09 11:40:00,
2013-05-09 07:45:00,55.0,53.9,29.85,SW,221,0.0,0.0,96,0.00,,---,0.04,VWS V14.01,2013-05-09 11:45:00,
2013-05-09 07:50:00,55.2,54.1,29.85,SW,221,0.0,0.0,96,0.00,,---,0.04,VWS V14.01,2013-05-09 11:50:00,
2013-05-09 07:55:00,55.4,54.3,29.85,SW,221,0.0,0.0,96,0.00,,---,0.04,VWS V14.01,2013-05-09 11:55:00,
2013-05-09 08:00:00,55.7,54.3,29.85,SW,214,0.0,0.0,95,0.00,,---,0.04,VWS V14.01,2013-05-09 12:00:00,
2013-05-09 08:01:00,55.8,54.4,29.85,SW,214,0.0,0.0,95,0.00,,---,0.04,VWS V14.01,2013-05-09 12:01:00,
2013-05-09 08:05:00,56.1,54.7,29.85,SSW,210,0.0,0.0,95,0.00,,---,0.04,VWS V14.01,2013-05-09 12:05:00,
2013-05-09 08:11:00,56.4,54.7,29.85,SW,214,0.0,0.0,94,0.00,,---,0.04,VWS V14.01,2013-05-09 12:11:00,
2013-05-09 08:16:00,56.8,55.1,29.85,SW,232,0.0,0.0,94,0.00,,---,0.04,VWS V14.01,2013-05-09 12:16:00,
2013-05-09 08:21:00,57.1,55.1,29.85,SW,219,0.0,0.0,93,0.00,,---,0.04,VWS V14.01,2013-05-09 12:21:00,
2013-05-09 08:26:00,57.3,55.0,29.85,SW,219,0.0,0.0,92,0.00,,---,0.04,VWS V14.01,2013-05-09 12:26:00,
2013-05-09 08:30:00,57.4,55.1,29.85,SW,220,0.0,0.0,92,0.00,,---,0.04,VWS V14.01,2013-05-09 12:30:00,
2013-05-09 08:31:00,57.5,54.9,29.85,SW,219,0.0,0.0,91,0.00,,---,0.04,VWS V14.01,2013-05-09 12:31:00,
2013-05-09 08:36:00,57.6,55.0,29.85,SW,217,0.0,0.0,91,0.00,,---,0.04,VWS V14.01,2013-05-09 12:36:00,
2013-05-09 08:41:00,57.8,55.2,29.85,SSW,209,0.0,0.0,91,0.00,,---,0.04,VWS V14.01,2013-05-09 12:41:00,
2013-05-09 08:46:00,57.7,54.8,29.85,SSW,210,0.0,0.0,90,0.00,,---,0.04,VWS V14.01,2013-05-09 12:46:00,
2013-05-09 08:51:00,57.9,55.3,29.86,SSW,210,0.0,0.0,91,0.00,,---,0.04,VWS V14.01,2013-05-09 12:51:00,
2013-05-09 08:56:00,58.1,55.5,29.86,SSW,210,0.0,0.0,91,0.00,,---,0.04,VWS V14.01,2013-05-09 12:56:00,
2013-05-09 09:00:00,58.2,55.3,29.86,SSW,210,0.0,0.0,90,0.00,,---,0.04,VWS V14.01,2013-05-09 13:00:00,
2013-05-09 09:01:00,58.3,55.4,29.86,SSW,210,0.0,0.0,90,0.00,,---,0.04,VWS V14.01,2013-05-09 13:01:00,
2013-05-09 09:06:00,58.5,55.6,29.86,SSW,210,0.0,0.0,90,0.00,,---,0.04,VWS V14.01,2013-05-09 13:06:00,
2013-05-09 09:11:00,58.6,55.7,29.86,SSW,210,0.0,0.0,90,0.00,,---,0.04,VWS V14.01,2013-05-09 13:11:00,
2013-05-09 09:16:00,58.8,55.9,29.86,SSW,210,0.0,0.0,90,0.00,,---,0.04,VWS V14.01,2013-05-09 13:16:00,
2013-05-09 09:21:00,59.1,56.2,29.86,SSW,210,0.0,0.0,90,0.00,,---,0.04,VWS V14.01,2013-05-09 13:21:00,
2013-05-09 09:26:00,59.2,56.0,29.86,SSW,212,0.0,0.0,89,0.00,,---,0.04,VWS V14.01,2013-05-09 13:26:00,
2013-05-09 09:30:00,59.2,56.0,29.86,SSW,212,0.0,0.0,89,0.00,,---,0.04,VWS V14.01,2013-05-09 13:30:00,
2013-05-09 09:31:00,59.2,56.0,29.86,SSW,212,0.0,0.0,89,0.00,,---,0.04,VWS V14.01,2013-05-09 13:31:00,
2013-05-09 09:36:00,59.5,56.9,29.86,SSW,212,0.0,0.0,91,0.00,,---,0.04,VWS V14.01,2013-05-09 13:36:00,
2013-05-09 09:41:00,59.7,56.5,29.86,SSW,212,0.0,0.0,89,0.00,,---,0.04,VWS V14.01,2013-05-09 13:41:00,
2013-05-09 09:46:00,59.6,56.0,29.86,SSW,212,0.0,0.0,88,0.00,,---,0.04,VWS V14.01,2013-05-09 13:46:00,
2013-05-09 09:51:00,59.7,56.2,29.86,SSW,212,0.0,0.0,88,0.00,,---,0.04,VWS V14.01,2013-05-09 13:51:00,
2013-05-09 09:56:00,59.8,56.2,29.86,SSW,212,0.0,0.0,88,0.00,,---,0.04,VWS V14.01,2013-05-09 13:56:00,
2013-05-09 10:00:00,59.7,56.2,29.86,SSW,212,0.0,0.0,88,0.00,,---,0.04,VWS V14.01,2013-05-09 14:00:00,
2013-05-09 10:01:00,59.8,56.2,29.86,SSW,212,0.0,0.0,88,0.00,,---,0.04,VWS V14.01,2013-05-09 14:01:00,
2013-05-09 10:06:00,60.0,56.4,29.86,SSW,212,0.0,0.0,88,0.00,,---,0.04,VWS V14.01,2013-05-09 14:06:00,
2013-05-09 10:11:00,60.4,56.8,29.86,SSW,212,0.0,0.0,88,0.00,,---,0.04,VWS V14.01,2013-05-09 14:11:00,
2013-05-09 10:16:00,60.6,56.4,29.86,SSW,211,0.0,0.0,86,0.00,,---,0.04,VWS V14.01,2013-05-09 14:16:00,
2013-05-09 10:22:00,60.8,56.6,29.86,SSW,212,0.0,0.0,86,0.00,,---,0.04,VWS V14.01,2013-05-09 14:22:00,
2013-05-09 10:27:00,61.1,57.5,29.86,SSW,212,0.0,0.0,88,0.00,,---,0.04,VWS V14.01,2013-05-09 14:27:00,
2013-05-09 10:30:00,61.2,57.0,29.86,SSW,212,0.0,0.0,86,0.00,,---,0.04,VWS V14.01,2013-05-09 14:30:00,
2013-05-09 10:32:00,61.3,57.1,29.86,SSW,212,0.0,0.0,86,0.00,,---,0.04,VWS V14.01,2013-05-09 14:32:00,
2013-05-09 10:37:00,61.4,56.5,29.86,SSW,212,0.0,0.0,84,0.00,,---,0.04,VWS V14.01,2013-05-09 14:37:00,
2013-05-09 10:42:00,61.2,56.7,29.86,SSW,212,0.0,0.0,85,0.00,,---,0.04,VWS V14.01,2013-05-09 14:42:00,
2013-05-09 10:47:00,61.0,56.8,29.86,SSW,212,0.0,0.0,86,0.00,,---,0.04,VWS V14.01,2013-05-09 14:47:00,
2013-05-09 10:52:00,60.8,56.3,29.86,SSW,212,0.0,0.0,85,0.00,,---,0.04,VWS V14.01,2013-05-09 14:52:00,
2013-05-09 10:57:00,60.5,56.3,29.86,SSW,212,0.0,0.0,86,0.00,,---,0.04,VWS V14.01,2013-05-09 14:57:00,
2013-05-09 11:00:00,60.6,56.7,29.86,SSW,212,0.0,0.0,87,0.00,,---,0.04,VWS V14.01,2013-05-09 15:00:00,
2013-05-09 11:02:00,60.6,56.7,29.87,SSW,212,0.0,0.0,87,0.00,,---,0.04,VWS V14.01,2013-05-09 15:02:00,
2013-05-09 11:07:00,60.5,56.9,29.87,SSW,212,0.0,0.0,88,0.01,,---,0.05,VWS V14.01,2013-05-09 15:07:00,
2013-05-09 11:12:00,60.4,57.2,29.87,SSW,212,0.0,0.0,89,0.01,,---,0.05,VWS V14.01,2013-05-09 15:12:00,
2013-05-09 11:17:00,60.0,56.8,29.87,SSW,212,0.0,0.0,89,0.02,,---,0.06,VWS V14.01,2013-05-09 15:17:00,
2013-05-09 11:22:00,59.8,56.9,29.87,SSW,212,0.0,0.0,90,0.03,,---,0.07,VWS V14.01,2013-05-09 15:22:00,
2013-05-09 11:27:00,59.4,56.2,29.87,SSW,212,0.0,0.0,89,0.03,,---,0.07,VWS V14.01,2013-05-09 15:27:00,
2013-05-09 11:30:00,59.2,56.3,29.87,SSW,212,0.0,0.0,90,0.03,,---,0.07,VWS V14.01,2013-05-09 15:30:00,
2013-05-09 11:32:00,59.1,56.2,29.87,SSW,212,0.0,0.0,90,0.03,,---,0.07,VWS V14.01,2013-05-09 15:32:00,
2013-05-09 11:37:00,59.0,56.4,29.87,SSW,212,0.0,0.0,91,0.03,,---,0.07,VWS V14.01,2013-05-09 15:37:00,
2013-05-09 11:42:00,59.0,56.4,29.87,SSW,212,0.0,0.0,91,0.03,,---,0.07,VWS V14.01,2013-05-09 15:42:00,
2013-05-09 11:47:00,59.3,57.0,29.87,SSW,212,0.0,0.0,92,0.03,,---,0.07,VWS V14.01,2013-05-09 15:47:00,
2013-05-09 11:52:00,59.9,57.6,29.86,SSW,212,0.0,0.0,92,0.03,,---,0.07,VWS V14.01,2013-05-09 15:52:00,
2013-05-09 11:57:00,60.8,58.5,29.86,SSW,212,0.0,0.0,92,0.03,,---,0.07,VWS V14.01,2013-05-09 15:57:00,
2013-05-09 12:00:00,61.2,58.2,29.86,SSW,212,0.0,0.0,90,0.03,,---,0.07,VWS V14.01,2013-05-09 16:00:00,
2013-05-09 12:02:00,61.6,58.3,29.86,SSW,212,0.0,0.0,89,0.03,,---,0.07,VWS V14.01,2013-05-09 16:02:00,
2013-05-09 12:07:00,62.7,59.7,29.86,SSW,212,0.0,0.0,90,0.03,,---,0.07,VWS V14.01,2013-05-09 16:07:00,
2013-05-09 12:12:00,62.9,59.0,29.86,SSW,212,0.0,0.0,87,0.03,,---,0.07,VWS V14.01,2013-05-09 16:12:00,
2013-05-09 12:17:00,62.5,57.6,29.86,SSW,212,0.0,0.0,84,0.03,,---,0.07,VWS V14.01,2013-05-09 16:17:00,
2013-05-09 12:22:00,62.3,57.4,29.86,SSW,212,0.0,0.0,84,0.03,,---,0.07,VWS V14.01,2013-05-09 16:22:00,
2013-05-09 12:27:00,61.8,57.2,29.86,SSW,212,0.0,0.0,85,0.03,,---,0.07,VWS V14.01,2013-05-09 16:27:00,
2013-05-09 12:30:00,61.6,56.7,29.86,SSW,212,0.0,0.0,84,0.03,,---,0.07,VWS V14.01,2013-05-09 16:30:00,
2013-05-09 12:32:00,61.2,56.7,29.86,SSW,212,0.0,0.0,85,0.00,,---,0.07,VWS V14.01,2013-05-09 16:32:00,
2013-05-09 12:37:00,60.6,56.4,29.86,SSW,212,0.0,0.0,86,0.00,,---,0.07,VWS V14.01,2013-05-09 16:37:00,
2013-05-09 12:43:00,60.2,56.6,29.86,SSW,212,0.0,0.0,88,0.00,,---,0.07,VWS V14.01,2013-05-09 16:43:00,
2013-05-09 12:48:00,60.2,57.0,29.86,SSW,212,0.0,0.0,89,0.00,,---,0.07,VWS V14.01,2013-05-09 16:48:00,
2013-05-09 12:53:00,60.0,56.8,29.86,SSW,212,0.0,0.0,89,0.00,,---,0.07,VWS V14.01,2013-05-09 16:53:00,
2013-05-09 12:58:00,60.2,57.0,29.86,SSW,212,0.0,0.0,89,0.00,,---,0.07,VWS V14.01,2013-05-09 16:58:00,
2013-05-09 13:00:00,60.3,57.0,29.86,SSW,212,0.0,0.0,89,0.00,,---,0.07,VWS V14.01,2013-05-09 17:00:00,
2013-05-09 13:03:00,60.5,57.2,29.86,SSW,212,0.0,0.0,89,0.00,,---,0.07,VWS V14.01,2013-05-09 17:03:00,
2013-05-09 13:08:00,61.0,58.0,29.86,SSW,212,0.0,0.0,90,0.00,,---,0.07,VWS V14.01,2013-05-09 17:08:00,
2013-05-09 13:13:00,61.3,57.4,29.86,SSW,212,0.0,0.0,87,0.00,,---,0.07,VWS V14.01,2013-05-09 17:13:00,
2013-05-09 13:18:00,61.9,58.3,29.86,SSW,200,0.0,0.0,88,0.00,,---,0.07,VWS V14.01,2013-05-09 17:18:00,
2013-05-09 13:23:00,62.6,58.7,29.86,South,188,0.0,0.0,87,0.00,,---,0.07,VWS V14.01,2013-05-09 17:23:00,
2013-05-09 13:28:00,63.1,57.9,29.86,SSW,205,0.0,0.0,83,0.00,,---,0.07,VWS V14.01,2013-05-09 17:28:00,
2013-05-09 13:30:00,62.9,56.6,29.86,SSW,206,0.0,0.0,80,0.00,,---,0.07,VWS V14.01,2013-05-09 17:30:00,
2013-05-09 13:33:00,62.4,55.1,29.86,SSW,206,0.0,0.0,77,0.00,,---,0.07,VWS V14.01,2013-05-09 17:33:00,
2013-05-09 13:38:00,61.9,55.7,29.86,SW,229,0.0,0.0,80,0.04,,---,0.11,VWS V14.01,2013-05-09 17:38:00,
2013-05-09 13:43:00,60.9,55.7,29.86,SW,229,0.0,0.0,83,0.06,,---,0.13,VWS V14.01,2013-05-09 17:43:00,
2013-05-09 13:48:00,60.7,56.8,29.86,SW,229,0.0,0.0,87,0.06,,---,0.13,VWS V14.01,2013-05-09 17:48:00,
2013-05-09 13:53:00,60.7,57.1,29.86,SW,229,0.0,0.0,88,0.06,,---,0.13,VWS V14.01,2013-05-09 17:53:00,
2013-05-09 13:58:00,60.6,57.0,29.86,SW,229,0.0,0.0,88,0.06,,---,0.13,VWS V14.01,2013-05-09 17:58:00,
2013-05-09 14:00:00,60.7,57.1,29.86,SW,229,0.0,0.0,88,0.06,,---,0.13,VWS V14.01,2013-05-09 18:00:00,
2013-05-09 14:03:00,60.8,57.2,29.86,SW,229,0.0,0.0,88,0.06,,---,0.13,VWS V14.01,2013-05-09 18:03:00,
2013-05-09 14:08:00,61.0,57.7,29.86,SW,229,0.0,0.0,89,0.06,,---,0.13,VWS V14.01,2013-05-09 18:08:00,
2013-05-09 14:13:00,61.3,57.7,29.86,SW,229,0.0,0.0,88,0.06,,---,0.13,VWS V14.01,2013-05-09 18:13:00,
2013-05-09 14:18:00,61.4,57.8,29.86,SW,229,0.0,0.0,88,0.06,,---,0.13,VWS V14.01,2013-05-09 18:18:00,
2013-05-09 14:23:00,61.6,58.3,29.86,SW,229,0.0,0.0,89,0.06,,---,0.13,VWS V14.01,2013-05-09 18:23:00,
2013-05-09 14:28:00,61.3,58.0,29.86,SW,229,0.0,0.0,89,0.07,,---,0.14,VWS V14.01,2013-05-09 18:28:00,
2013-05-09 14:30:00,61.3,58.0,29.86,SW,229,0.0,0.0,89,0.07,,---,0.14,VWS V14.01,2013-05-09 18:30:00,
2013-05-09 14:33:00,61.3,58.3,29.86,West,271,0.0,0.0,90,0.07,,---,0.14,VWS V14.01,2013-05-09 18:33:00,
2013-05-09 14:38:00,61.0,58.0,29.86,NW,319,0.0,0.0,90,0.08,,---,0.15,VWS V14.01,2013-05-09 18:38:00,
2013-05-09 14:43:00,60.5,57.6,29.86,NNW,345,0.0,0.0,90,0.09,,---,0.16,VWS V14.01,2013-05-09 18:43:00,
2013-05-09 14:48:00,60.0,57.1,29.87,NNW,345,0.0,0.0,90,0.09,,---,0.16,VWS V14.01,2013-05-09 18:48:00,
2013-05-09 14:53:00,59.4,56.8,29.86,NNW,345,0.0,0.0,91,0.09,,---,0.16,VWS V14.01,2013-05-09 18:53:00,
2013-05-09 14:58:00,59.0,56.4,29.86,NNW,345,0.0,0.0,91,0.09,,---,0.16,VWS V14.01,2013-05-09 18:58:00,
2013-05-09 15:00:00,59.1,56.8,29.86,NNW,345,0.0,0.0,92,0.09,,---,0.16,VWS V14.01,2013-05-09 19:00:00,
2013-05-09 15:03:00,59.3,57.3,29.86,NNW,345,0.0,0.0,93,0.03,,---,0.16,VWS V14.01,2013-05-09 19:03:00,
2013-05-09 15:08:00,59.5,57.2,29.86,NNW,345,0.0,0.0,92,0.03,,---,0.16,VWS V14.01,2013-05-09 19:08:00,
2013-05-09 15:13:00,59.9,57.9,29.86,NNW,345,0.0,0.0,93,0.03,,---,0.16,VWS V14.01,2013-05-09 19:13:00,
2013-05-09 15:18:00,60.7,58.7,29.86,NNW,345,0.0,0.0,93,0.03,,---,0.16,VWS V14.01,2013-05-09 19:18:00,
2013-05-09 15:23:00,61.2,58.9,29.86,NNW,345,0.0,0.0,92,0.03,,---,0.16,VWS V14.01,2013-05-09 19:23:00,
2013-05-09 15:28:00,62.0,59.7,29.86,NNW,345,0.0,0.0,92,0.03,,---,0.16,VWS V14.01,2013-05-09 19:28:00,
2013-05-09 15:30:00,62.2,59.5,29.86,NNW,345,0.0,0.0,91,0.03,,---,0.16,VWS V14.01,2013-05-09 19:30:00,
2013-05-09 15:33:00,62.5,58.9,29.86,NNW,345,0.0,0.0,88,0.02,,---,0.16,VWS V14.01,2013-05-09 19:33:00,
2013-05-09 15:38:00,63.2,59.3,29.86,NNW,345,0.0,0.0,87,0.02,,---,0.16,VWS V14.01,2013-05-09 19:38:00,
2013-05-09 15:44:00,63.6,59.3,29.86,NNW,345,0.0,0.0,86,0.02,,---,0.16,VWS V14.01,2013-05-09 19:44:00,
2013-05-09 15:49:00,63.7,58.1,29.86,NNW,345,0.0,0.0,82,0.02,,---,0.16,VWS V14.01,2013-05-09 19:49:00,
2013-05-09 15:54:00,63.8,58.2,29.86,NNW,344,0.0,0.0,82,0.02,,---,0.16,VWS V14.01,2013-05-09 19:54:00,
2013-05-09 15:59:00,64.6,59.7,29.86,NNW,342,0.0,0.0,84,0.02,,---,0.16,VWS V14.01,2013-05-09 19:59:00,
2013-05-09 16:00:00,64.7,59.4,29.86,NNW,342,0.0,0.0,83,0.02,,---,0.16,VWS V14.01,2013-05-09 20:00:00,
2013-05-09 16:04:00,64.7,58.0,29.86,NNW,341,0.0,0.0,79,0.00,,---,0.16,VWS V14.01,2013-05-09 20:04:00,
2013-05-09 16:09:00,65.1,58.8,29.86,West,275,0.0,0.0,80,0.00,,---,0.16,VWS V14.01,2013-05-09 20:09:00,
2013-05-09 16:14:00,65.4,58.4,29.86,SW,224,0.0,0.0,78,0.00,,---,0.16,VWS V14.01,2013-05-09 20:14:00,
2013-05-09 16:19:00,65.2,58.5,29.86,West,263,0.0,0.0,79,0.00,,---,0.16,VWS V14.01,2013-05-09 20:19:00,
2013-05-09 16:24:00,64.8,58.5,29.86,West,263,0.0,0.0,80,0.00,,---,0.16,VWS V14.01,2013-05-09 20:24:00,
2013-05-09 16:29:00,64.6,58.7,29.86,West,263,0.0,0.0,81,0.00,,---,0.16,VWS V14.01,2013-05-09 20:29:00,
2013-05-09 16:30:00,64.6,58.7,29.86,West,263,0.0,0.0,81,0.00,,---,0.16,VWS V14.01,2013-05-09 20:30:00,
2013-05-09 16:34:00,64.3,58.0,29.86,West,265,0.0,0.0,80,0.00,,---,0.16,VWS V14.01,2013-05-09 20:34:00,
2013-05-09 16:39:00,64.2,58.3,29.86,West,266,0.0,0.0,81,0.00,,---,0.16,VWS V14.01,2013-05-09 20:39:00,
2013-05-09 16:44:00,64.0,58.1,29.86,West,265,0.0,0.0,81,0.00,,---,0.16,VWS V14.01,2013-05-09 20:44:00,
2013-05-09 16:49:00,64.0,58.7,29.87,West,265,0.0,0.0,83,0.00,,---,0.16,VWS V14.01,2013-05-09 20:49:00,
2013-05-09 16:54:00,63.7,58.5,29.87,West,265,0.0,0.0,83,0.00,,---,0.16,VWS V14.01,2013-05-09 20:54:00,
2013-05-09 16:59:00,63.7,58.5,29.87,West,266,0.0,0.0,83,0.00,,---,0.16,VWS V14.01,2013-05-09 20:59:00,
2013-05-09 17:00:00,63.7,58.5,29.87,West,266,0.0,0.0,83,0.00,,---,0.16,VWS V14.01,2013-05-09 21:00:00,
2013-05-09 17:04:00,63.7,58.8,29.87,West,266,0.0,0.0,84,0.00,,---,0.16,VWS V14.01,2013-05-09 21:04:00,
2013-05-09 17:09:00,64.1,59.5,29.86,West,271,0.0,0.0,85,0.00,,---,0.16,VWS V14.01,2013-05-09 21:09:00,
2013-05-09 17:14:00,64.3,59.0,29.87,West,276,0.0,0.0,83,0.00,,---,0.16,VWS V14.01,2013-05-09 21:14:00,
2013-05-09 17:19:00,64.5,59.2,29.87,West,279,0.0,0.0,83,0.00,,---,0.16,VWS V14.01,2013-05-09 21:19:00,
2013-05-09 17:24:00,64.6,59.0,29.87,West,280,0.0,0.0,82,0.00,,---,0.16,VWS V14.01,2013-05-09 21:24:00,
2013-05-09 17:29:00,64.8,59.5,29.87,NW,313,0.0,0.0,83,0.00,,---,0.16,VWS V14.01,2013-05-09 21:29:00,
2013-05-09 17:30:00,64.8,59.5,29.87,NW,313,0.0,0.0,83,0.00,,---,0.16,VWS V14.01,2013-05-09 21:30:00,
2013-05-09 17:34:00,65.2,59.2,29.87,NW,317,0.0,0.0,81,0.00,,---,0.16,VWS V14.01,2013-05-09 21:34:00,
2013-05-09 17:39:00,65.7,59.4,29.87,WNW,284,0.0,0.0,80,0.00,,---,0.16,VWS V14.01,2013-05-09 21:39:00,
2013-05-09 17:44:00,65.9,59.2,29.87,NNW,345,0.0,0.0,79,0.00,,---,0.16,VWS V14.01,2013-05-09 21:44:00,
2013-05-09 17:50:00,65.9,59.2,29.87,WNW,284,0.0,0.0,79,0.00,,---,0.16,VWS V14.01,2013-05-09 21:50:00,
2013-05-09 17:55:00,66.0,58.6,29.87,WNW,293,0.0,0.0,77,0.00,,---,0.16,VWS V14.01,2013-05-09 21:55:00,
2013-05-09 18:00:00,66.4,59.3,29.87,WNW,292,0.0,0.0,78,0.00,,---,0.16,VWS V14.01,2013-05-09 22:00:00,
2013-05-09 18:05:00,66.8,59.0,29.87,WNW,290,0.0,0.0,76,0.00,,---,0.16,VWS V14.01,2013-05-09 22:05:00,
2013-05-09 18:10:00,66.5,59.1,29.87,NNW,336,0.0,0.0,77,0.00,,---,0.16,VWS V14.01,2013-05-09 22:10:00,
2013-05-09 18:15:00,66.7,59.3,29.87,NNW,331,0.0,0.0,77,0.00,,---,0.16,VWS V14.01,2013-05-09 22:15:00,
2013-05-09 18:20:00,67.0,59.6,29.87,West,281,0.0,0.0,77,0.00,,---,0.16,VWS V14.01,2013-05-09 22:20:00,
2013-05-09 18:25:00,67.2,59.8,29.87,West,281,0.0,0.0,77,0.00,,---,0.16,VWS V14.01,2013-05-09 22:25:00,
2013-05-09 18:30:00,67.2,59.4,29.87,WNW,288,0.0,0.0,76,0.00,,---,0.16,VWS V14.01,2013-05-09 22:30:00,
2013-05-09 18:35:00,67.0,59.6,29.87,WNW,292,0.0,0.0,77,0.00,,---,0.16,VWS V14.01,2013-05-09 22:35:00,
2013-05-09 18:40:00,66.4,58.6,29.87,NW,304,0.0,0.0,76,0.00,,---,0.16,VWS V14.01,2013-05-09 22:40:00,
2013-05-09 18:45:00,66.4,59.3,29.87,NW,304,0.0,0.0,78,0.00,,---,0.16,VWS V14.01,2013-05-09 22:45:00,
2013-05-09 18:50:00,65.9,58.1,29.87,WNW,284,0.0,0.0,76,0.00,,---,0.16,VWS V14.01,2013-05-09 22:50:00,
2013-05-09 18:55:00,65.1,58.1,29.87,NW,314,0.0,0.0,78,0.00,,---,0.16,VWS V14.01,2013-05-09 22:55:00,
2013-05-09 19:00:00,64.3,57.7,29.87,NW,313,0.0,0.0,79,0.00,,---,0.16,VWS V14.01,2013-05-09 23:00:00,
2013-05-09 19:05:00,63.8,57.9,29.88,WNW,301,0.0,0.0,81,0.00,,---,0.16,VWS V14.01,2013-05-09 23:05:00,
2013-05-09 19:10:00,63.5,57.9,29.88,WNW,293,0.0,0.0,82,0.00,,---,0.16,VWS V14.01,2013-05-09 23:10:00,
2013-05-09 19:15:00,63.2,58.0,29.88,WNW,293,0.0,0.0,83,0.00,,---,0.16,VWS V14.01,2013-05-09 23:15:00,
2013-05-09 19:20:00,63.2,58.3,29.88,WNW,293,0.0,0.0,84,0.00,,---,0.16,VWS V14.01,2013-05-09 23:20:00,
2013-05-09 19:25:00,63.1,58.2,29.88,WNW,297,0.0,0.0,84,0.00,,---,0.16,VWS V14.01,2013-05-09 23:25:00,
2013-05-09 19:30:00,63.0,58.1,29.88,WNW,301,0.0,0.0,84,0.00,,---,0.16,VWS V14.01,2013-05-09 23:30:00,
2013-05-09 19:35:00,63.0,58.1,29.88,WNW,299,0.0,0.0,84,0.00,,---,0.16,VWS V14.01,2013-05-09 23:35:00,
2013-05-09 19:40:00,62.8,57.9,29.88,WNW,297,0.0,0.0,84,0.00,,---,0.16,VWS V14.01,2013-05-09 23:40:00,
2013-05-09 19:45:00,62.5,57.6,29.88,WNW,296,0.0,0.0,84,0.00,,---,0.16,VWS V14.01,2013-05-09 23:45:00,
2013-05-09 19:50:00,62.1,57.5,29.88,WNW,296,0.0,0.0,85,0.00,,---,0.16,VWS V14.01,2013-05-09 23:50:00,
2013-05-09 19:55:00,61.7,57.5,29.89,WNW,296,0.0,0.0,86,0.00,,---,0.16,VWS V14.01,2013-05-09 23:55:00,
2013-05-09 20:00:00,61.5,57.3,29.89,WNW,296,0.0,0.0,86,0.00,,---,0.16,VWS V14.01,2013-05-10 00:00:00,
2013-05-09 20:05:00,61.3,57.4,29.89,WNW,296,0.0,0.0,87,0.00,,---,0.16,VWS V14.01,2013-05-10 00:05:00,
2013-05-09 20:10:00,61.0,57.1,29.89,WNW,296,0.0,0.0,87,0.00,,---,0.16,VWS V14.01,2013-05-10 00:10:00,
2013-05-09 20:15:00,60.6,56.7,29.89,WNW,296,0.0,0.0,87,0.00,,---,0.16,VWS V14.01,2013-05-10 00:15:00,
2013-05-09 20:20:00,60.3,56.7,29.89,WNW,296,0.0,0.0,88,0.00,,---,0.16,VWS V14.01,2013-05-10 00:20:00,
2013-05-09 20:26:00,59.8,56.2,29.89,WNW,296,0.0,0.0,88,0.00,,---,0.16,VWS V14.01,2013-05-10 00:26:00,
2013-05-09 20:30:00,59.4,56.2,29.89,WNW,296,0.0,0.0,89,0.00,,---,0.16,VWS V14.01,2013-05-10 00:30:00,
2013-05-09 20:36:00,59.1,56.2,29.89,WNW,296,0.0,0.0,90,0.00,,---,0.16,VWS V14.01,2013-05-10 00:36:00,
2013-05-09 20:40:00,58.9,56.3,29.89,WNW,292,0.0,0.0,91,0.00,,---,0.16,VWS V14.01,2013-05-10 00:40:00,
2013-05-09 20:45:00,58.8,56.2,29.89,WNW,285,0.0,0.0,91,0.00,,---,0.16,VWS V14.01,2013-05-10 00:45:00,
2013-05-09 20:51:00,58.9,56.6,29.89,WSW,252,0.0,0.0,92,0.00,,---,0.16,VWS V14.01,2013-05-10 00:51:00,
2013-05-09 20:56:00,58.9,56.6,29.90,WSW,242,0.0,0.0,92,0.00,,---,0.16,VWS V14.01,2013-05-10 00:56:00,
2013-05-09 21:00:00,59.0,56.7,29.90,WSW,240,0.0,0.0,92,0.00,,---,0.16,VWS V14.01,2013-05-10 01:00:00,
2013-05-09 21:01:00,59.0,56.7,29.90,WSW,240,0.0,0.0,92,0.00,,---,0.16,VWS V14.01,2013-05-10 01:01:00,
2013-05-09 21:06:00,59.2,56.9,29.90,WSW,240,0.0,0.0,92,0.00,,---,0.16,VWS V14.01,2013-05-10 01:06:00,
2013-05-09 21:11:00,59.2,56.9,29.90,WSW,240,0.0,0.0,92,0.00,,---,0.16,VWS V14.01,2013-05-10 01:11:00,
2013-05-09 21:16:00,59.2,56.9,29.90,WSW,240,0.0,0.0,92,0.00,,---,0.16,VWS V14.01,2013-05-10 01:16:00,
2013-05-09 21:21:00,59.2,56.9,29.90,WSW,240,0.0,0.0,92,0.00,,---,0.16,VWS V14.01,2013-05-10 01:21:00,
2013-05-09 21:26:00,59.1,56.8,29.90,WSW,240,0.0,0.0,92,0.00,,---,0.16,VWS V14.01,2013-05-10 01:26:00,
2013-05-09 21:30:00,59.1,56.5,29.91,WSW,240,0.0,0.0,91,0.00,,---,0.16,VWS V14.01,2013-05-10 01:30:00,
2013-05-09 21:31:00,59.0,56.7,29.91,WSW,240,0.0,0.0,92,0.00,,---,0.16,VWS V14.01,2013-05-10 01:31:00,
2013-05-09 21:36:00,58.9,56.6,29.91,WSW,240,0.0,0.0,92,0.00,,---,0.16,VWS V14.01,2013-05-10 01:36:00,
2013-05-09 21:41:00,58.9,56.6,29.91,WSW,241,0.0,0.0,92,0.00,,---,0.16,VWS V14.01,2013-05-10 01:41:00,
2013-05-09 21:46:00,58.9,56.6,29.91,WSW,240,0.0,0.0,92,0.00,,---,0.16,VWS V14.01,2013-05-10 01:46:00,
2013-05-09 21:51:00,58.9,56.6,29.91,SW,236,0.0,0.0,92,0.00,,---,0.16,VWS V14.01,2013-05-10 01:51:00,
2013-05-09 21:56:00,58.9,56.6,29.91,SW,236,0.0,0.0,92,0.00,,---,0.16,VWS V14.01,2013-05-10 01:56:00,
2013-05-09 22:00:00,58.9,56.6,29.91,SW,235,0.0,0.0,92,0.00,,---,0.16,VWS V14.01,2013-05-10 02:00:00,
2013-05-09 22:01:00,58.9,56.6,29.91,SW,233,0.0,0.0,92,0.00,,---,0.16,VWS V14.01,2013-05-10 02:01:00,
2013-05-09 22:06:00,58.9,56.6,29.91,SW,233,0.0,0.0,92,0.00,,---,0.16,VWS V14.01,2013-05-10 02:06:00,
2013-05-09 22:11:00,58.9,56.6,29.92,SW,230,0.0,0.0,92,0.00,,---,0.16,VWS V14.01,2013-05-10 02:11:00,
2013-05-09 22:16:00,59.0,56.4,29.92,SW,234,0.0,0.0,91,0.00,,---,0.16,VWS V14.01,2013-05-10 02:16:00,
2013-05-09 22:21:00,58.9,56.3,29.92,SW,236,0.0,0.0,91,0.00,,---,0.16,VWS V14.01,2013-05-10 02:21:00,
2013-05-09 22:26:00,58.9,56.3,29.92,SW,233,0.0,0.0,91,0.00,,---,0.16,VWS V14.01,2013-05-10 02:26:00,
2013-05-09 22:30:00,58.9,56.3,29.92,SW,228,0.0,0.0,91,0.00,,---,0.16,VWS V14.01,2013-05-10 02:30:00,
2013-05-09 22:31:00,58.9,56.3,29.92,SW,229,0.0,0.0,91,0.00,,---,0.16,VWS V14.01,2013-05-10 02:31:00,
2013-05-09 22:36:00,59.0,56.4,29.92,SW,230,0.0,0.0,91,0.00,,---,0.16,VWS V14.01,2013-05-10 02:36:00,
2013-05-09 22:41:00,59.0,56.4,29.92,WSW,240,0.0,0.0,91,0.00,,---,0.16,VWS V14.01,2013-05-10 02:41:00,
2013-05-09 22:46:00,59.1,56.5,29.92,WSW,237,0.0,0.0,91,0.00,,---,0.16,VWS V14.01,2013-05-10 02:46:00,
2013-05-09 22:51:00,59.0,56.4,29.92,WSW,238,0.0,0.0,91,0.00,,---,0.16,VWS V14.01,2013-05-10 02:51:00,
2013-05-09 22:56:00,59.0,56.4,29.92,SW,230,0.0,0.0,91,0.00,,---,0.16,VWS V14.01,2013-05-10 02:56:00,
2013-05-09 23:00:00,58.8,56.2,29.92,SW,232,0.0,0.0,91,0.00,,---,0.16,VWS V14.01,2013-05-10 03:00:00,
2013-05-09 23:01:00,58.8,56.2,29.92,SW,223,0.0,0.0,91,0.00,,---,0.16,VWS V14.01,2013-05-10 03:01:00,
2013-05-09 23:06:00,58.8,56.2,29.92,SW,234,0.0,0.0,91,0.00,,---,0.16,VWS V14.01,2013-05-10 03:06:00,
2013-05-09 23:11:00,58.9,56.3,29.92,SW,227,0.0,0.0,91,0.00,,---,0.16,VWS V14.01,2013-05-10 03:11:00,
2013-05-09 23:16:00,58.9,56.3,29.92,SW,232,0.0,0.0,91,0.00,,---,0.16,VWS V14.01,2013-05-10 03:16:00,
2013-05-09 23:21:00,59.0,56.4,29.92,SW,226,0.0,0.0,91,0.00,,---,0.16,VWS V14.01,2013-05-10 03:21:00,
2013-05-09 23:26:00,59.0,56.1,29.92,SW,231,0.0,0.0,90,0.00,,---,0.16,VWS V14.01,2013-05-10 03:26:00,
2013-05-09 23:30:00,59.0,56.1,29.92,WSW,240,0.0,0.0,90,0.00,,---,0.16,VWS V14.01,2013-05-10 03:30:00,
2013-05-09 23:31:00,59.0,56.7,29.92,SW,230,0.0,0.0,92,0.00,,---,0.16,VWS V14.01,2013-05-10 03:31:00,
2013-05-09 23:36:00,59.1,55.9,29.92,SW,234,0.0,0.0,89,0.00,,---,0.16,VWS V14.01,2013-05-10 03:36:00,
2013-05-09 23:41:00,59.1,55.9,29.91,SW,231,0.0,0.0,89,0.00,,---,0.16,VWS V14.01,2013-05-10 03:41:00,
2013-05-09 23:46:00,59.1,55.5,29.91,SW,231,0.0,0.0,88,0.00,,---,0.16,VWS V14.01,2013-05-10 03:46:00,
2013-05-09 23:51:00,59.1,55.2,29.91,SW,233,0.0,0.0,87,0.00,,---,0.16,VWS V14.01,2013-05-10 03:51:00,
2013-05-09 23:56:00,59.1,54.9,29.91,SW,233,0.0,0.0,86,0.00,,---,0.16,VWS V14.01,2013-05-10 03:56:00,